Terminal Aerodrome Forecast
Issued by NWS Wilmington, NC

Home | Current Version | Previous Version | Text Only | Print | Product List | Glossary On
Versions: 1 2 3 4 5 6 7 8 9 10 11 12 13 14 15 16 17 18 19 20 21 22 23 24 25 26 27 28
000
FTUS42 KILM 052300
TAFMYR
TAF
KMYR 052335Z 0600/0624 01014KT P6SM -RA SCT015 BKN020 OVC035
     FM060100 02014KT 6SM -RA SCT009 BKN015 OVC035
      TEMPO 0602/0606 4SM -RAPL BKN009 OVC012
     FM061000 01020G28KT P6SM VCSH SCT015 OVC050
     FM061800 02013KT P6SM SCT050 SCT250
      AMD LTD TO CLD VIS AND WIND 0604/0611=

USA.gov is the U.S. government's official web portal to all federal, state and local government web resources and services.